Time;durP1;ratioP1;P1;durP2;ratioP2;P2;SDS_P1;SDS_P2;PMS_P1;PMS_P2;Temp;Humidity;BMP_temperature;BMP_pressure;BME280_temperature;BME280_humidity;BME280_pressure;Samples;Min_cycle;Max_cycle;Signal;HPM_P1;HPM_P2
2023/05/02 00:01:24;;;;;;;4.97;4.57;;;;;;;;;;5031843;28;20916;-73
2023/05/02 00:03:50;;;;;;;4.90;4.50;;;;;;;;;;5031985;28;20179;-74
2023/05/02 00:06:16;;;;;;;4.80;4.40;;;;;;;;;;5033034;28;20195;-73
2023/05/02 00:08:43;;;;;;;4.27;3.97;;;;;;;;;;5015487;28;20186;-74
2023/05/02 00:11:09;;;;;;;5.00;4.50;;;;;;;;;;5031682;28;20186;-73
2023/05/02 00:13:35;;;;;;;5.00;4.50;;;;;;;;;;5032689;28;20292;-73
2023/05/02 00:16:01;;;;;;;5.20;4.80;;;;;;;;;;5031777;28;22006;-74
2023/05/02 00:18:27;;;;;;;4.53;4.13;;;;;;;;;;5031945;28;20601;-73
2023/05/02 00:20:55;;;;;;;4.87;4.47;;;;;;;;;;5031534;28;20271;-74
2023/05/02 00:23:22;;;;;;;4.70;4.30;;;;;;;;;;5032523;28;20179;-74
2023/05/02 00:25:49;;;;;;;4.93;4.33;;;;;;;;;;5032696;28;20182;-73
2023/05/02 00:28:15;;;;;;;5.23;4.70;;;;;;;;;;5031837;28;20194;-73
2023/05/02 00:30:42;;;;;;;5.13;4.50;;;;;;;;;;5031235;28;20273;-74
2023/05/02 00:33:09;;;;;;;4.60;4.20;;;;;;;;;;5031454;28;20208;-73
2023/05/02 00:35:35;;;;;;;5.33;4.83;;;;;;;;;;5032513;28;20694;-74
2023/05/02 00:38:01;;;;;;;4.97;4.57;;;;;;;;;;5032552;28;20285;-73
2023/05/02 00:40:27;;;;;;;4.97;4.47;;;;;;;;;;5014731;28;20694;-73
2023/05/02 00:42:53;;;;;;;4.97;4.47;;;;;;;;;;5030939;28;20179;-74
2023/05/02 00:45:20;;;;;;;5.33;4.83;;;;;;;;;;5031263;28;20178;-74
2023/05/02 00:47:46;;;;;;;5.33;4.83;;;;;;;;;;5031247;28;20736;-74
2023/05/02 00:50:12;;;;;;;5.33;4.93;;;;;;;;;;5031081;28;20821;-74
2023/05/02 00:52:38;;;;;;;5.47;4.50;;;;;;;;;;5031028;28;20179;-73
2023/05/02 00:55:05;;;;;;;4.57;4.13;;;;;;;;;;5031132;28;20567;-73
2023/05/02 00:57:32;;;;;;;5.63;4.40;;;;;;;;;;5032201;28;20209;-73
2023/05/02 00:59:58;;;;;;;5.00;4.50;;;;;;;;;;5031526;28;20183;-74
2023/05/02 01:02:28;;;;;;;4.60;4.20;;;;;;;;;;5030395;28;20252;-73
2023/05/02 01:04:54;;;;;;;5.63;5.00;;;;;;;;;;5031949;28;20275;-73
2023/05/02 01:07:36;;;;;;;4.83;4.43;;;;;;;;;;5030559;28;20245;-74
2023/05/02 01:10:08;;;;;;;4.90;4.50;;;;;;;;;;5031867;28;20167;-73
2023/05/02 01:13:03;;;;;;;5.37;4.87;;;;;;;;;;5031665;28;20190;-73
2023/05/02 01:15:30;;;;;;;5.13;4.63;;;;;;;;;;5022253;28;20650;-73
2023/05/02 01:17:57;;;;;;;4.83;4.43;;;;;;;;;;5031731;28;20225;-73
2023/05/02 01:20:26;;;;;;;4.80;4.40;;;;;;;;;;5030544;28;20218;-73
2023/05/02 01:22:53;;;;;;;5.07;4.57;;;;;;;;;;5029948;28;20183;-73
2023/05/02 01:25:29;;;;;;;5.30;4.80;;;;;;;;;;5031940;28;20179;-73
2023/05/02 01:28:14;;;;;;;5.13;4.63;;;;;;;;;;5031479;28;20676;-73
2023/05/02 01:30:42;;;;;;;4.80;4.40;;;;;;;;;;5031636;28;20179;-73
2023/05/02 01:33:11;;;;;;;4.63;4.23;;;;;;;;;;5029920;28;20175;-73
2023/05/02 01:35:37;;;;;;;5.30;4.80;;;;;;;;;;5031468;28;20185;-73
2023/05/02 01:38:05;;;;;;;4.80;4.40;;;;;;;;;;5031408;28;20194;-73
2023/05/02 01:40:33;;;;;;;4.77;4.30;;;;;;;;;;5030203;28;20577;-74
2023/05/02 01:43:03;;;;;;;4.90;4.40;;;;;;;;;;5031121;28;20225;-73
2023/05/02 01:45:30;;;;;;;5.87;4.40;;;;;;;;;;5030378;28;20224;-72
2023/05/02 01:47:57;;;;;;;4.80;4.40;;;;;;;;;;5031731;28;20681;-73
2023/05/02 01:50:24;;;;;;;4.50;4.10;;;;;;;;;;5031360;28;20175;-73
2023/05/02 01:52:52;;;;;;;4.70;4.30;;;;;;;;;;5029663;28;20182;-73
2023/05/02 01:55:19;;;;;;;4.73;4.23;;;;;;;;;;5031236;28;20186;-73
2023/05/02 01:57:46;;;;;;;4.80;4.40;;;;;;;;;;5029589;28;20202;-73
2023/05/02 02:00:13;;;;;;;5.03;4.50;;;;;;;;;;5030025;28;20186;-73
2023/05/02 02:02:41;;;;;;;4.50;4.10;;;;;;;;;;5029729;28;20190;-73
2023/05/02 02:05:08;;;;;;;4.90;4.50;;;;;;;;;;5029477;28;20177;-73
2023/05/02 02:07:35;;;;;;;5.33;4.83;;;;;;;;;;5030846;28;20425;-73
2023/05/02 02:10:01;;;;;;;5.40;4.90;;;;;;;;;;5029924;28;20547;-73
2023/05/02 02:12:41;;;;;;;6.40;4.83;;;;;;;;;;5029436;28;20228;-73
2023/05/02 02:15:25;;;;;;;6.00;5.50;;;;;;;;;;5029830;28;20512;-73
2023/05/02 02:17:57;;;;;;;5.60;5.10;;;;;;;;;;5031013;28;20198;-73
2023/05/02 02:20:24;;;;;;;5.40;4.90;;;;;;;;;;5030919;28;20189;-73
2023/05/02 02:22:51;;;;;;;5.70;5.10;;;;;;;;;;5030636;28;20493;-73
2023/05/02 02:25:18;;;;;;;7.33;6.63;;;;;;;;;;5031041;28;20175;-73
2023/05/02 02:27:44;;;;;;;6.20;5.60;;;;;;;;;;5031014;28;20687;-73
2023/05/02 02:30:11;;;;;;;6.53;5.93;;;;;;;;;;5031040;28;20198;-73
2023/05/02 02:32:37;;;;;;;5.70;5.20;;;;;;;;;;5029478;28;20220;-73
2023/05/02 02:35:04;;;;;;;5.33;4.83;;;;;;;;;;4997153;28;20190;-73
2023/05/02 02:37:31;;;;;;;5.30;4.80;;;;;;;;;;5030540;28;20232;-73
2023/05/02 02:40:16;;;;;;;6.80;6.20;;;;;;;;;;5030956;28;20183;-73
2023/05/02 02:43:01;;;;;;;7.43;6.60;;;;;;;;;;5029390;28;20253;-73
2023/05/02 02:45:27;;;;;;;6.37;5.77;;;;;;;;;;5031000;28;20701;-74
2023/05/02 02:48:02;;;;;;;6.20;5.60;;;;;;;;;;5029442;28;20202;-73
2023/05/02 02:50:34;;;;;;;5.40;5.00;;;;;;;;;;5029627;28;20753;-73
2023/05/02 02:53:05;;;;;;;5.07;4.67;;;;;;;;;;5029146;28;20690;-72
2023/05/02 02:55:47;;;;;;;5.33;4.90;;;;;;;;;;5029469;28;20187;-73
2023/05/02 02:58:20;;;;;;;5.00;4.60;;;;;;;;;;5029604;28;20198;-72
2023/05/02 03:00:47;;;;;;;5.77;5.27;;;;;;;;;;5030647;28;20233;-73
2023/05/02 03:03:14;;;;;;;4.87;4.47;;;;;;;;;;5030161;28;20611;-73
2023/05/02 03:05:41;;;;;;;8.70;5.70;;;;;;;;;;5029826;28;20548;-73
2023/05/02 03:08:08;;;;;;;5.87;5.37;;;;;;;;;;5029350;28;20220;-73
2023/05/02 03:10:34;;;;;;;5.70;5.20;;;;;;;;;;5030656;28;20182;-73
2023/05/02 03:13:00;;;;;;;5.63;5.10;;;;;;;;;;5034047;28;20186;-74
2023/05/02 03:15:58;;;;;;;5.27;4.77;;;;;;;;;;5034336;28;20178;-73
2023/05/02 03:18:28;;;;;;;5.27;4.70;;;;;;;;;;5032929;28;20629;-72
2023/05/02 03:20:54;;;;;;;7.43;4.97;;;;;;;;;;5033966;28;20209;-73
2023/05/02 03:23:20;;;;;;;5.80;5.20;;;;;;;;;;5016013;28;20234;-73
2023/05/02 03:25:47;;;;;;;5.83;5.33;;;;;;;;;;5032715;28;20264;-73
2023/05/02 03:28:19;;;;;;;5.83;5.33;;;;;;;;;;5032767;28;20182;-73
2023/05/02 03:30:47;;;;;;;6.50;5.40;;;;;;;;;;5032883;28;20189;-73
2023/05/02 03:33:13;;;;;;;5.30;4.80;;;;;;;;;;5033465;28;20175;-73
2023/05/02 03:35:42;;;;;;;6.43;5.83;;;;;;;;;;5033599;28;20297;-73
2023/05/02 03:38:08;;;;;;;7.20;6.30;;;;;;;;;;5016133;28;20178;-73
2023/05/02 03:40:35;;;;;;;6.03;5.40;;;;;;;;;;5032842;28;20216;-74
2023/05/02 03:43:01;;;;;;;5.83;4.97;;;;;;;;;;5032787;28;20187;-74
2023/05/02 03:45:31;;;;;;;5.27;4.83;;;;;;;;;;5032836;28;20171;-73
2023/05/02 03:47:58;;;;;;;5.90;5.33;;;;;;;;;;5032325;28;20191;-73
2023/05/02 03:50:24;;;;;;;4.93;4.53;;;;;;;;;;5032343;28;20179;-73
2023/05/02 03:52:52;;;;;;;4.93;4.47;;;;;;;;;;5032000;28;20198;-73
2023/05/02 03:55:27;;;;;;;6.07;4.60;;;;;;;;;;5032196;28;20240;-73
2023/05/02 03:57:53;;;;;;;5.30;4.80;;;;;;;;;;5032274;28;20195;-73
2023/05/02 04:00:20;;;;;;;6.47;5.77;;;;;;;;;;5032033;28;20269;-73
2023/05/02 04:02:53;;;;;;;7.80;6.37;;;;;;;;;;5031751;28;20232;-73
2023/05/02 04:05:23;;;;;;;7.03;6.43;;;;;;;;;;5032367;28;20548;-73
2023/05/02 04:07:49;;;;;;;5.93;5.33;;;;;;;;;;5031957;28;20201;-73
2023/05/02 04:10:17;;;;;;;5.93;5.43;;;;;;;;;;5032010;28;20179;-73
2023/05/02 04:12:50;;;;;;;6.70;6.10;;;;;;;;;;5031650;28;20186;-73
2023/05/02 04:15:17;;;;;;;6.43;5.83;;;;;;;;;;5031571;28;20178;-73
2023/05/02 04:17:45;;;;;;;5.97;5.00;;;;;;;;;;5031666;28;20195;-73
2023/05/02 04:20:12;;;;;;;6.80;4.87;;;;;;;;;;5031637;28;20228;-73
2023/05/02 04:22:43;;;;;;;5.93;5.33;;;;;;;;;;5031275;28;20551;-73
2023/05/02 04:25:09;;;;;;;6.33;5.73;;;;;;;;;;5015742;28;20175;-73
2023/05/02 04:27:38;;;;;;;6.70;6.10;;;;;;;;;;5032199;28;20285;-72
2023/05/02 04:30:09;;;;;;;6.97;5.97;;;;;;;;;;5031750;28;20244;-73
2023/05/02 04:32:36;;;;;;;6.63;5.30;;;;;;;;;;5031653;28;20191;-73
2023/05/02 04:35:04;;;;;;;5.70;5.20;;;;;;;;;;5031705;28;20213;-72
2023/05/02 04:37:30;;;;;;;6.23;5.63;;;;;;;;;;5015474;28;20256;-72
2023/05/02 04:39:57;;;;;;;6.57;5.77;;;;;;;;;;5032826;28;20289;-72
2023/05/02 04:42:26;;;;;;;6.17;5.57;;;;;;;;;;5031444;28;20206;-72
2023/05/02 04:45:05;;;;;;;6.60;6.00;;;;;;;;;;5031652;28;20236;-72
2023/05/02 04:47:31;;;;;;;6.70;6.10;;;;;;;;;;5032778;28;20195;-72
2023/05/02 04:49:57;;;;;;;7.37;6.70;;;;;;;;;;5031530;28;20239;-72
2023/05/02 04:52:24;;;;;;;6.37;5.77;;;;;;;;;;5032408;28;20757;-73
2023/05/02 04:54:50;;;;;;;8.00;6.70;;;;;;;;;;5031149;28;20191;-72
2023/05/02 04:57:16;;;;;;;9.10;6.50;;;;;;;;;;5031481;28;20206;-72
2023/05/02 04:59:46;;;;;;;6.80;6.20;;;;;;;;;;5031184;28;20225;-73
2023/05/02 05:02:13;;;;;;;7.60;6.90;;;;;;;;;;5031969;28;20214;-73
2023/05/02 05:04:39;;;;;;;8.23;7.53;;;;;;;;;;5023766;28;20182;-72
2023/05/02 05:07:06;;;;;;;7.80;6.67;;;;;;;;;;5024287;28;20203;-72
2023/05/02 05:09:32;;;;;;;10.87;9.93;;;;;;;;;;5040013;28;20182;-72
2023/05/02 05:11:58;;;;;;;8.80;7.90;;;;;;;;;;5035751;28;20191;-73
2023/05/02 05:14:25;;;;;;;8.53;7.17;;;;;;;;;;5032021;28;20182;-73
2023/05/02 05:16:53;;;;;;;6.23;5.67;;;;;;;;;;5014702;28;20214;-73
2023/05/02 05:19:20;;;;;;;8.23;7.43;;;;;;;;;;5030911;28;20193;-72
2023/05/02 05:21:46;;;;;;;8.30;7.50;;;;;;;;;;5032553;28;20206;-73
2023/05/02 05:24:16;;;;;;;8.40;7.50;;;;;;;;;;5030806;28;20320;-73
2023/05/02 05:26:42;;;;;;;7.27;6.53;;;;;;;;;;5014670;28;20220;-73
2023/05/02 05:29:09;;;;;;;8.47;7.50;;;;;;;;;;5030621;28;20178;-73
2023/05/02 05:31:40;;;;;;;8.17;7.37;;;;;;;;;;5030632;28;20183;-73
2023/05/02 05:34:07;;;;;;;10.93;8.07;;;;;;;;;;5029901;28;20182;-73
2023/05/02 05:36:33;;;;;;;9.87;8.57;;;;;;;;;;5030106;28;20206;-73
2023/05/02 05:39:01;;;;;;;8.80;7.97;;;;;;;;;;5030382;28;20187;-73
2023/05/02 05:41:27;;;;;;;7.73;6.93;;;;;;;;;;5030109;28;20210;-73
2023/05/02 05:44:01;;;;;;;9.93;8.67;;;;;;;;;;5030090;28;20242;-73
2023/05/02 05:46:29;;;;;;;10.03;9.07;;;;;;;;;;5030342;28;20202;-73
2023/05/02 05:48:56;;;;;;;9.50;8.60;;;;;;;;;;5030123;28;20596;-74
2023/05/02 05:51:22;;;;;;;10.20;9.20;;;;;;;;;;5030364;28;20175;-73
2023/05/02 05:53:49;;;;;;;12.37;11.17;;;;;;;;;;5029818;28;20646;-73
2023/05/02 05:56:16;;;;;;;12.77;10.93;;;;;;;;;;5030009;28;20272;-73
2023/05/02 05:58:50;;;;;;;12.27;11.07;;;;;;;;;;5030096;28;20277;-73
2023/05/02 06:01:16;;;;;;;10.67;9.67;;;;;;;;;;5027356;28;20206;-72
2023/05/02 06:03:42;;;;;;;12.70;11.40;;;;;;;;;;5028221;28;20635;-72
2023/05/02 06:06:08;;;;;;;11.07;9.93;;;;;;;;;;5023685;28;20198;-72
2023/05/02 06:08:34;;;;;;;10.30;9.23;;;;;;;;;;5012282;28;20879;-71
2023/05/02 06:11:01;;;;;;;11.53;10.47;;;;;;;;;;5009939;28;20544;-72
2023/05/02 06:13:27;;;;;;;11.70;10.53;;;;;;;;;;4995663;28;20202;-73
2023/05/02 06:15:54;;;;;;;12.10;10.83;;;;;;;;;;5021210;28;20186;-74
2023/05/02 06:18:20;;;;;;;13.27;11.93;;;;;;;;;;5029136;28;20189;-73
2023/05/02 06:20:47;;;;;;;12.50;11.20;;;;;;;;;;5004029;28;20224;-74
2023/05/02 06:23:14;;;;;;;14.23;12.83;;;;;;;;;;5026238;28;20265;-74
2023/05/02 06:25:40;;;;;;;15.40;13.80;;;;;;;;;;5025991;28;20961;-74
2023/05/02 06:28:08;;;;;;;15.37;13.87;;;;;;;;;;5018602;28;20198;-74
2023/05/02 06:30:35;;;;;;;15.90;14.30;;;;;;;;;;5022812;28;20167;-73
2023/05/02 06:33:03;;;;;;;15.30;13.13;;;;;;;;;;5022061;28;20214;-73
2023/05/02 06:35:29;;;;;;;14.97;13.50;;;;;;;;;;5018130;28;20182;-73
2023/05/02 06:37:55;;;;;;;14.00;12.53;;;;;;;;;;5021963;28;20198;-73
2023/05/02 06:40:22;;;;;;;19.63;17.50;;;;;;;;;;5024557;28;20232;-73
2023/05/02 06:42:48;;;;;;;20.23;16.60;;;;;;;;;;5028468;28;20656;-73
2023/05/02 06:45:14;;;;;;;20.97;18.60;;;;;;;;;;5026192;28;20187;-73
2023/05/02 06:47:40;;;;;;;19.60;17.50;;;;;;;;;;5029728;28;20210;-73
2023/05/02 06:50:07;;;;;;;21.20;19.00;;;;;;;;;;5023921;28;20282;-73
2023/05/02 06:52:33;;;;;;;21.07;18.87;;;;;;;;;;5027517;28;20185;-73
2023/05/02 06:54:59;;;;;;;21.97;19.57;;;;;;;;;;5015943;28;20229;-73
2023/05/02 06:57:25;;;;;;;20.47;18.27;;;;;;;;;;5025309;28;20206;-73
2023/05/02 06:59:51;;;;;;;25.33;21.47;;;;;;;;;;5030250;28;20264;-73
2023/05/02 07:02:17;;;;;;;25.43;22.73;;;;;;;;;;5028336;28;20957;-73
2023/05/02 07:04:44;;;;;;;26.33;22.23;;;;;;;;;;5026650;28;20183;-72
2023/05/02 07:07:10;;;;;;;29.30;25.50;;;;;;;;;;5026600;28;20206;-73
2023/05/02 07:09:36;;;;;;;26.23;23.23;;;;;;;;;;5029827;28;20186;-73
2023/05/02 07:12:02;;;;;;;31.27;25.87;;;;;;;;;;5027530;28;20194;-73
2023/05/02 07:14:28;;;;;;;26.80;23.73;;;;;;;;;;5027249;28;20233;-73
2023/05/02 07:16:55;;;;;;;32.33;26.00;;;;;;;;;;5025376;28;20252;-73
2023/05/02 07:19:21;;;;;;;27.63;24.60;;;;;;;;;;5023575;28;20266;-75
2023/05/02 07:21:47;;;;;;;28.40;24.87;;;;;;;;;;5028364;28;20220;-73
2023/05/02 07:24:13;;;;;;;30.30;25.13;;;;;;;;;;5023606;28;20256;-73
2023/05/02 07:26:39;;;;;;;31.67;26.90;;;;;;;;;;5031836;28;20199;-73
2023/05/02 07:29:05;;;;;;;29.60;25.90;;;;;;;;;;5020401;28;20183;-73
2023/05/02 07:31:32;;;;;;;33.63;27.23;;;;;;;;;;5022852;28;20300;-73
2023/05/02 07:33:58;;;;;;;31.50;26.73;;;;;;;;;;5030755;28;20698;-73
2023/05/02 07:36:25;;;;;;;33.97;26.33;;;;;;;;;;5029553;28;20214;-73
2023/05/02 07:38:51;;;;;;;30.53;25.80;;;;;;;;;;5033610;28;20179;-73
2023/05/02 07:41:17;;;;;;;30.30;26.47;;;;;;;;;;5029224;28;20218;-73
2023/05/02 07:43:43;;;;;;;34.13;28.73;;;;;;;;;;5019149;28;20209;-73
2023/05/02 07:46:09;;;;;;;31.77;28.27;;;;;;;;;;5025641;28;20217;-73
2023/05/02 07:48:36;;;;;;;36.90;30.27;;;;;;;;;;5033634;28;20661;-74
2023/05/02 07:51:06;;;;;;;38.90;29.57;;;;;;;;;;5029760;28;20235;-73
2023/05/02 07:53:32;;;;;;;36.90;30.37;;;;;;;;;;5028369;28;20187;-73
2023/05/02 07:55:58;;;;;;;38.07;30.50;;;;;;;;;;5026951;28;20222;-74
2023/05/02 07:58:24;;;;;;;38.43;30.83;;;;;;;;;;5013455;28;20179;-73
2023/05/02 08:00:51;;;;;;;38.87;32.07;;;;;;;;;;5025769;28;20578;-73
2023/05/02 08:03:17;;;;;;;40.47;32.10;;;;;;;;;;5020470;28;20183;-73
2023/05/02 08:05:43;;;;;;;39.67;31.70;;;;;;;;;;5025163;28;20198;-73
2023/05/02 08:08:09;;;;;;;36.60;30.17;;;;;;;;;;5029265;28;20179;-73
2023/05/02 08:10:36;;;;;;;36.90;29.60;;;;;;;;;;5027250;28;20569;-73
2023/05/02 08:13:02;;;;;;;33.63;26.70;;;;;;;;;;5026912;28;20178;-73
2023/05/02 08:15:29;;;;;;;35.20;27.63;;;;;;;;;;5030627;28;20317;-73
2023/05/02 08:17:55;;;;;;;36.90;28.37;;;;;;;;;;5030670;28;20288;-74
2023/05/02 08:20:21;;;;;;;33.27;26.87;;;;;;;;;;5031003;28;20273;-73
2023/05/02 08:22:47;;;;;;;30.40;25.67;;;;;;;;;;5026282;28;20214;-73
2023/05/02 08:25:14;;;;;;;28.97;23.17;;;;;;;;;;5031742;28;20249;-73
2023/05/02 08:27:42;;;;;;;26.83;21.67;;;;;;;;;;5031030;28;20198;-73
2023/05/02 08:30:08;;;;;;;24.33;20.30;;;;;;;;;;5029899;28;20315;-72
2023/05/02 08:32:35;;;;;;;26.17;22.57;;;;;;;;;;5031936;28;20178;-72
2023/05/02 08:35:02;;;;;;;29.47;23.40;;;;;;;;;;5028774;28;20320;-73
2023/05/02 08:37:28;;;;;;;24.57;20.20;;;;;;;;;;5030036;28;20293;-73
2023/05/02 08:39:54;;;;;;;26.33;21.07;;;;;;;;;;5029850;28;20751;-73
2023/05/02 08:42:21;;;;;;;30.20;24.30;;;;;;;;;;5030069;28;20207;-71
2023/05/02 08:44:48;;;;;;;31.83;26.17;;;;;;;;;;5029510;28;20634;-73
2023/05/02 08:47:15;;;;;;;31.43;26.10;;;;;;;;;;5033074;28;20198;-74
2023/05/02 08:49:42;;;;;;;27.20;21.63;;;;;;;;;;5032514;28;20188;-75
2023/05/02 08:52:11;;;;;;;25.40;19.87;;;;;;;;;;5027693;28;20182;-75
2023/05/02 08:54:37;;;;;;;25.90;21.33;;;;;;;;;;5032020;28;20200;-76
2023/05/02 08:57:04;;;;;;;27.60;22.20;;;;;;;;;;5024432;28;20218;-74
2023/05/02 08:59:30;;;;;;;27.20;22.17;;;;;;;;;;5031746;28;20644;-76
2023/05/02 09:02:15;;;;;;;24.03;20.37;;;;;;;;;;5031885;28;20280;-76
2023/05/02 09:04:44;;;;;;;23.40;19.77;;;;;;;;;;5030839;28;20194;-73
2023/05/02 09:07:10;;;;;;;26.53;20.43;;;;;;;;;;5027764;28;20213;-72
2023/05/02 09:09:36;;;;;;;25.33;20.97;;;;;;;;;;5031051;28;20678;-77
2023/05/02 09:12:03;;;;;;;29.73;22.43;;;;;;;;;;5023755;28;20187;-76
2023/05/02 09:14:29;;;;;;;26.70;21.27;;;;;;;;;;5030448;28;20658;-73
2023/05/02 09:16:59;;;;;;;24.83;19.17;;;;;;;;;;5014769;28;20628;-75
2023/05/02 09:19:26;;;;;;;27.60;20.97;;;;;;;;;;5031099;28;20196;-74
2023/05/02 09:21:52;;;;;;;25.40;21.07;;;;;;;;;;5012424;28;20218;-72
2023/05/02 09:24:19;;;;;;;26.23;20.90;;;;;;;;;;5028647;28;20544;-72
2023/05/02 09:27:04;;;;;;;25.87;21.67;;;;;;;;;;5031061;28;20277;-73
2023/05/02 09:29:36;;;;;;;27.70;22.70;;;;;;;;;;5023304;28;20190;-73
2023/05/02 09:32:03;;;;;;;25.90;21.43;;;;;;;;;;5023909;28;20175;-76
2023/05/02 09:34:30;;;;;;;24.80;20.17;;;;;;;;;;5030493;28;20178;-71
2023/05/02 09:36:57;;;;;;;24.13;18.80;;;;;;;;;;5031790;28;20212;-72
2023/05/02 09:39:24;;;;;;;22.70;18.23;;;;;;;;;;5021170;28;20205;-72
2023/05/02 09:41:50;;;;;;;23.77;19.30;;;;;;;;;;5025347;28;20226;-72
2023/05/02 09:44:17;;;;;;;22.57;17.67;;;;;;;;;;5031039;28;20187;-72
2023/05/02 09:46:51;;;;;;;24.57;17.87;;;;;;;;;;5030999;28;20199;-71
2023/05/02 09:49:17;;;;;;;21.10;17.50;;;;;;;;;;5019049;28;20262;-72
2023/05/02 09:51:45;;;;;;;20.13;16.20;;;;;;;;;;5026612;28;20175;-72
2023/05/02 09:54:11;;;;;;;17.50;13.63;;;;;;;;;;5025294;28;20190;-72
2023/05/02 09:56:56;;;;;;;17.70;14.40;;;;;;;;;;5026021;28;20248;-72
2023/05/02 09:59:23;;;;;;;16.10;13.70;;;;;;;;;;5027126;28;20174;-72
2023/05/02 10:02:02;;;;;;;17.13;14.17;;;;;;;;;;5030650;28;20199;-72
2023/05/02 10:04:30;;;;;;;19.53;14.97;;;;;;;;;;5027897;28;20309;-73
2023/05/02 10:06:57;;;;;;;22.50;15.87;;;;;;;;;;5022012;28;20213;-72
2023/05/02 10:09:25;;;;;;;21.13;15.57;;;;;;;;;;5030619;28;20186;-72
2023/05/02 10:11:52;;;;;;;21.77;15.83;;;;;;;;;;5030348;28;20194;-72
2023/05/02 10:14:23;;;;;;;20.23;14.80;;;;;;;;;;5016590;28;20198;-75
2023/05/02 10:16:53;;;;;;;20.90;15.87;;;;;;;;;;5015444;28;20282;-73
2023/05/02 10:19:23;;;;;;;21.57;16.90;;;;;;;;;;5032304;28;20265;-72
2023/05/02 10:21:50;;;;;;;23.23;16.77;;;;;;;;;;5034812;28;20213;-74
2023/05/02 10:24:16;;;;;;;19.37;14.97;;;;;;;;;;5032060;28;20178;-72
2023/05/02 10:26:43;;;;;;;18.97;14.70;;;;;;;;;;5026282;28;20215;-75
2023/05/02 10:29:10;;;;;;;18.23;14.47;;;;;;;;;;5030403;28;20670;-75
2023/05/02 10:31:39;;;;;;;18.83;14.37;;;;;;;;;;5035300;28;20378;-72
2023/05/02 10:34:09;;;;;;;17.60;14.27;;;;;;;;;;5034567;28;20198;-75
2023/05/02 10:36:35;;;;;;;17.47;13.70;;;;;;;;;;5034858;28;20293;-75
2023/05/02 10:39:02;;;;;;;16.40;11.90;;;;;;;;;;5031253;28;20200;-74
2023/05/02 10:41:30;;;;;;;16.10;12.47;;;;;;;;;;5034273;28;20210;-72
2023/05/02 10:43:57;;;;;;;15.87;11.63;;;;;;;;;;5033121;28;20237;-72
2023/05/02 10:46:33;;;;;;;15.60;12.07;;;;;;;;;;5034219;28;20210;-72
2023/05/02 10:49:07;;;;;;;14.23;11.23;;;;;;;;;;5026459;28;20193;-72
2023/05/02 10:51:33;;;;;;;15.57;11.47;;;;;;;;;;5020416;28;20187;-72
2023/05/02 10:54:18;;;;;;;15.67;12.50;;;;;;;;;;5032649;28;20201;-72
2023/05/02 10:57:02;;;;;;;14.43;11.60;;;;;;;;;;5030588;28;20221;-75
2023/05/02 10:59:30;;;;;;;15.17;11.90;;;;;;;;;;5034521;28;20207;-73
2023/05/02 11:01:57;;;;;;;13.37;10.73;;;;;;;;;;5031606;28;20740;-75
2023/05/02 11:04:23;;;;;;;14.03;11.00;;;;;;;;;;5032997;28;20257;-73
2023/05/02 11:06:58;;;;;;;13.03;10.43;;;;;;;;;;5030279;28;20221;-72
2023/05/02 11:09:25;;;;;;;16.37;11.00;;;;;;;;;;5030240;28;20666;-75
2023/05/02 11:11:53;;;;;;;14.03;10.70;;;;;;;;;;5030951;28;20193;-72
2023/05/02 11:14:25;;;;;;;14.03;10.27;;;;;;;;;;5031042;28;20676;-74
2023/05/02 11:17:07;;;;;;;12.33;10.23;;;;;;;;;;5026916;28;20288;-75
2023/05/02 11:19:42;;;;;;;15.43;10.70;;;;;;;;;;5036054;28;20209;-72
2023/05/02 11:22:17;;;;;;;11.87;9.30;;;;;;;;;;5033448;28;20202;-72
2023/05/02 11:24:46;;;;;;;12.60;9.73;;;;;;;;;;5032090;28;20292;-72
2023/05/02 11:27:32;;;;;;;13.27;9.90;;;;;;;;;;5029096;28;20214;-74
2023/05/02 11:30:05;;;;;;;13.87;9.60;;;;;;;;;;5030084;28;20186;-72
2023/05/02 11:32:52;;;;;;;10.60;8.50;;;;;;;;;;5023339;28;20222;-75
2023/05/02 11:35:19;;;;;;;10.20;8.70;;;;;;;;;;5030819;28;20193;-72
2023/05/02 11:37:55;;;;;;;12.10;9.23;;;;;;;;;;5033746;28;20233;-75
2023/05/02 11:40:21;;;;;;;12.20;9.23;;;;;;;;;;5033217;28;20188;-72
2023/05/02 11:42:47;;;;;;;10.40;8.07;;;;;;;;;;5029875;28;20667;-75
2023/05/02 11:45:13;;;;;;;10.13;8.43;;;;;;;;;;5030817;28;20210;-75
2023/05/02 11:47:41;;;;;;;9.07;7.47;;;;;;;;;;5033322;28;20213;-75
2023/05/02 11:50:08;;;;;;;9.27;7.47;;;;;;;;;;5033469;28;20186;-72
2023/05/02 11:52:38;;;;;;;9.27;7.50;;;;;;;;;;5033155;28;20666;-73
2023/05/02 11:55:08;;;;;;;8.97;7.47;;;;;;;;;;5031137;28;20232;-74
2023/05/02 11:57:34;;;;;;;9.50;7.60;;;;;;;;;;5032849;28;20202;-78
2023/05/02 12:00:00;;;;;;;9.77;7.03;;;;;;;;;;5027772;28;20257;-77
2023/05/02 12:02:47;;;;;;;7.20;6.33;;;;;;;;;;5034548;28;20209;-77
2023/05/02 12:05:14;;;;;;;8.53;7.13;;;;;;;;;;5033225;28;20182;-75
2023/05/02 12:07:42;;;;;;;11.27;7.43;;;;;;;;;;5033450;28;20205;-75
2023/05/02 12:10:09;;;;;;;9.63;7.37;;;;;;;;;;5033359;28;20796;-75
2023/05/02 12:12:35;;;;;;;8.40;6.70;;;;;;;;;;5033117;28;20187;-75
2023/05/02 12:15:03;;;;;;;9.33;6.97;;;;;;;;;;5027710;28;20186;-75
2023/05/02 12:17:30;;;;;;;10.70;8.30;;;;;;;;;;5033164;28;20202;-75
2023/05/02 12:19:57;;;;;;;12.17;8.50;;;;;;;;;;5033230;28;20179;-75
2023/05/02 12:22:24;;;;;;;10.50;8.00;;;;;;;;;;5032652;28;20212;-75
2023/05/02 12:24:52;;;;;;;10.77;7.57;;;;;;;;;;5033178;28;20566;-76
2023/05/02 12:27:18;;;;;;;7.90;6.97;;;;;;;;;;5033841;28;20673;-76
2023/05/02 12:29:45;;;;;;;8.37;6.73;;;;;;;;;;5031522;28;20525;-76
2023/05/02 12:32:12;;;;;;;8.37;7.47;;;;;;;;;;5029631;28;20242;-76
2023/05/02 12:34:39;;;;;;;8.03;6.50;;;;;;;;;;5028402;28;20181;-77
2023/05/02 12:37:05;;;;;;;8.43;6.57;;;;;;;;;;5032320;28;20206;-77
2023/05/02 12:39:38;;;;;;;7.70;6.87;;;;;;;;;;5032565;28;20182;-80
2023/05/02 12:42:11;;;;;;;7.67;6.63;;;;;;;;;;5014803;28;20261;-78
2023/05/02 12:44:38;;;;;;;8.27;7.07;;;;;;;;;;5026252;28;20212;-78
2023/05/02 12:47:04;;;;;;;7.17;6.47;;;;;;;;;;5022731;28;20212;-78
2023/05/02 12:49:30;;;;;;;8.27;6.87;;;;;;;;;;5031673;28;20174;-78
2023/05/02 12:51:57;;;;;;;9.43;7.67;;;;;;;;;;5032387;28;20182;-78
2023/05/02 12:54:24;;;;;;;8.93;7.40;;;;;;;;;;5032307;28;20196;-78
2023/05/02 12:56:51;;;;;;;7.10;5.80;;;;;;;;;;5024848;28;20246;-78
2023/05/02 12:59:27;;;;;;;8.27;7.47;;;;;;;;;;5029546;28;20233;-77
2023/05/02 13:01:53;;;;;;;9.20;7.93;;;;;;;;;;5023080;28;20702;-77
2023/05/02 13:04:19;;;;;;;9.53;7.80;;;;;;;;;;5030971;28;20640;-77
2023/05/02 13:06:46;;;;;;;9.77;7.93;;;;;;;;;;5028956;28;20305;-77
2023/05/02 13:09:12;;;;;;;8.30;7.40;;;;;;;;;;5031784;28;20557;-77
2023/05/02 13:11:38;;;;;;;9.27;7.37;;;;;;;;;;5032123;28;20190;-78
2023/05/02 13:14:04;;;;;;;8.67;6.97;;;;;;;;;;5030874;28;20186;-78
2023/05/02 13:16:32;;;;;;;8.63;6.40;;;;;;;;;;5032137;28;20198;-78
2023/05/02 13:18:58;;;;;;;7.10;6.40;;;;;;;;;;5024410;28;20185;-77
2023/05/02 13:21:24;;;;;;;5.80;5.20;;;;;;;;;;5031949;28;20209;-77
2023/05/02 13:23:52;;;;;;;5.30;4.23;;;;;;;;;;5027634;28;20210;-78
2023/05/02 13:26:18;;;;;;;4.27;3.27;;;;;;;;;;5024062;28;20260;-78
2023/05/02 13:28:44;;;;;;;4.00;3.20;;;;;;;;;;5031943;28;20172;-78
2023/05/02 13:31:10;;;;;;;4.40;3.77;;;;;;;;;;5030564;28;20196;-78
2023/05/02 13:33:36;;;;;;;4.23;3.73;;;;;;;;;;5028387;28;20693;-78
2023/05/02 13:36:02;;;;;;;3.47;3.17;;;;;;;;;;5030814;28;20182;-78
2023/05/02 13:38:29;;;;;;;2.90;2.70;;;;;;;;;;5032026;28;20648;-78
2023/05/02 13:40:55;;;;;;;3.70;3.40;;;;;;;;;;5030487;28;20242;-78
2023/05/02 13:43:21;;;;;;;3.70;3.23;;;;;;;;;;5028914;28;20276;-78
2023/05/02 13:45:47;;;;;;;3.50;2.97;;;;;;;;;;5031187;28;20191;-78
2023/05/02 13:48:14;;;;;;;3.57;3.23;;;;;;;;;;5030279;28;20181;-78
2023/05/02 13:50:40;;;;;;;5.00;3.60;;;;;;;;;;5031242;28;20190;-78
2023/05/02 13:53:07;;;;;;;4.10;3.70;;;;;;;;;;5027043;28;20208;-77
2023/05/02 13:55:33;;;;;;;3.40;3.10;;;;;;;;;;5031252;28;20198;-78
2023/05/02 13:58:00;;;;;;;4.47;3.57;;;;;;;;;;5021277;28;20227;-78
2023/05/02 14:00:28;;;;;;;4.00;3.60;;;;;;;;;;5028327;28;20192;-78
2023/05/02 14:02:54;;;;;;;3.80;3.40;;;;;;;;;;5019905;28;20289;-78
2023/05/02 14:05:20;;;;;;;4.70;4.00;;;;;;;;;;5027408;28;20263;-78
2023/05/02 14:07:46;;;;;;;7.00;5.07;;;;;;;;;;5027232;28;20230;-78
2023/05/02 14:10:13;;;;;;;8.23;5.97;;;;;;;;;;5026241;28;20658;-77
2023/05/02 14:12:39;;;;;;;7.00;6.20;;;;;;;;;;5013691;28;20184;-77
2023/05/02 14:15:05;;;;;;;7.30;6.03;;;;;;;;;;5031794;28;20181;-77
2023/05/02 14:17:31;;;;;;;7.40;5.90;;;;;;;;;;5013491;28;20198;-77
2023/05/02 14:19:57;;;;;;;8.97;6.47;;;;;;;;;;5027007;28;20672;-78
2023/05/02 14:22:24;;;;;;;7.13;6.43;;;;;;;;;;5031147;28;20202;-78
2023/05/02 14:24:50;;;;;;;7.93;6.60;;;;;;;;;;5029741;28;20209;-77
2023/05/02 14:27:19;;;;;;;6.83;6.13;;;;;;;;;;5029565;28;20203;-78
2023/05/02 14:29:45;;;;;;;8.63;6.17;;;;;;;;;;5031584;28;20177;-77
2023/05/02 14:32:12;;;;;;;8.30;6.70;;;;;;;;;;5028605;28;20221;-78
2023/05/02 14:34:38;;;;;;;6.83;6.13;;;;;;;;;;5025385;28;20193;-78
2023/05/02 14:37:04;;;;;;;8.63;5.40;;;;;;;;;;5024385;28;20234;-77
2023/05/02 14:39:30;;;;;;;5.00;4.50;;;;;;;;;;5022703;28;20189;-78